TimePDT,TemperatureF,Dew PointF,Humidity,Sea Level PressureIn,VisibilityMPH,Wind Direction,Wind SpeedMPH,Gust SpeedMPH,PrecipitationIn,Events,Conditions,WindDirDegrees,DateUTC
12:58 AM,43.5,43.3,99,29.59,5.0,NE,1.2,-,0.08,,Overcast,50,2013-03-20 07:58:00
1:34 AM,48.2,46.4,93,29.55,10.0,SSE,9.2,17.3,N/A,,Overcast,150,2013-03-20 08:34:00
1:43 AM,48.2,46.4,93,29.54,10.0,SSE,8.1,-,N/A,Rain,Light Rain,150,2013-03-20 08:43:00
1:58 AM,47.3,46.4,97,29.56,10.0,SE,6.9,-,0.04,Rain,Light Rain,140,2013-03-20 08:58:00
2:45 AM,46.4,46.4,100,29.52,10.0,South,8.1,-,N/A,,Overcast,170,2013-03-20 09:45:00
2:49 AM,46.4,46.4,100,29.52,10.0,South,6.9,-,N/A,Rain,Light Rain,170,2013-03-20 09:49:00
2:58 AM,46.9,46.2,97,29.54,10.0,South,6.9,-,0.02,Rain,Light Rain,170,2013-03-20 09:58:00
2:59 AM,46.4,46.4,100,29.51,10.0,South,5.8,-,N/A,,Overcast,170,2013-03-20 09:59:00
3:04 AM,46.4,46.4,100,29.51,10.0,South,5.8,-,N/A,Rain,Light Rain,170,2013-03-20 10:04:00
3:13 AM,46.4,46.4,100,29.50,10.0,South,5.8,-,N/A,,Overcast,180,2013-03-20 10:13:00
3:18 AM,46.4,46.4,100,29.50,10.0,South,5.8,-,N/A,Rain,Light Rain,180,2013-03-20 10:18:00
3:27 AM,46.4,46.4,100,29.50,10.0,South,3.5,-,N/A,,Mostly Cloudy,190,2013-03-20 10:27:00
3:34 AM,46.4,46.4,100,29.50,10.0,South,3.5,-,N/A,Rain,Light Rain,190,2013-03-20 10:34:00
3:58 AM,46.4,46.0,99,29.49,10.0,SSE,2.3,-,0.02,Rain,Light Rain,160,2013-03-20 10:58:00
4:58 AM,47.1,46.8,99,29.46,9.0,Calm,Calm,-,0.03,Rain,Light Rain,0,2013-03-20 11:58:00
5:58 AM,48.4,48.0,99,29.44,9.0,SSE,3.5,-,0.08,Rain,Light Rain,150,2013-03-20 12:58:00
6:50 AM,50.0,48.2,94,29.41,10.0,South,6.9,-,N/A,,Overcast,180,2013-03-20 13:50:00
6:51 AM,50.0,48.2,94,29.41,10.0,South,6.9,-,N/A,Rain,Light Rain,180,2013-03-20 13:51:00
6:54 AM,50.0,48.2,94,29.41,10.0,South,6.9,-,N/A,,Overcast,180,2013-03-20 13:54:00
6:58 AM,49.3,49.1,99,29.43,10.0,South,6.9,-,0.04,,Overcast,180,2013-03-20 13:58:00
6:59 AM,50.0,48.2,94,29.41,10.0,South,6.9,-,N/A,Rain,Light Rain,180,2013-03-20 13:59:00
7:58 AM,50.7,50.5,99,29.44,10.0,South,15.0,24.2,0.09,Rain,Light Rain,190,2013-03-20 14:58:00
8:00 AM,51.8,50.0,94,29.42,10.0,South,15.0,24.2,N/A,,Overcast,190,2013-03-20 15:00:00
8:01 AM,51.8,50.0,94,29.42,10.0,South,15.0,24.2,N/A,Rain,Light Rain,190,2013-03-20 15:01:00
8:16 AM,51.8,50.0,94,29.43,8.0,South,10.4,-,N/A,Rain,Light Rain,190,2013-03-20 15:16:00
8:37 AM,51.8,50.0,94,29.42,10.0,South,20.7,28.8,N/A,Rain,Light Rain,180,2013-03-20 15:37:00
8:52 AM,51.8,50.0,94,29.43,10.0,SSW,23.0,28.8,N/A,,Overcast,200,2013-03-20 15:52:00
8:56 AM,51.8,48.2,88,29.44,10.0,SSW,19.6,28.8,N/A,,Overcast,200,2013-03-20 15:56:00
9:02 AM,50.0,48.2,94,29.45,10.0,SW,21.9,29.9,N/A,Rain,Light Rain,220,2013-03-20 16:02:00
9:16 AM,50.0,48.2,94,29.47,5.0,SSW,21.9,33.4,N/A,Rain,Light Rain,210,2013-03-20 16:16:00
9:21 AM,50.0,48.2,94,29.47,10.0,SSW,19.6,29.9,N/A,Rain,Light Rain,210,2013-03-20 16:21:00
9:26 AM,50.0,48.2,94,29.48,10.0,SW,23.0,25.3,N/A,,Overcast,220,2013-03-20 16:26:00
9:35 AM,48.2,46.4,93,29.49,10.0,WSW,25.3,35.7,N/A,,Overcast,240,2013-03-20 16:35:00
9:39 AM,48.2,46.4,93,29.50,10.0,SW,20.7,35.7,N/A,,Overcast,220,2013-03-20 16:39:00
9:56 AM,48.2,46.4,93,29.52,10.0,SW,20.7,32.2,N/A,,Overcast,220,2013-03-20 16:56:00
10:25 AM,50.0,44.6,82,29.54,10.0,SSW,24.2,29.9,N/A,,Mostly Cloudy,210,2013-03-20 17:25:00
10:37 AM,50.0,42.8,76,29.55,10.0,SSW,20.7,31.1,N/A,,Mostly Cloudy,200,2013-03-20 17:37:00
10:56 AM,48.2,44.6,87,29.57,10.0,SSW,18.4,27.6,N/A,,Overcast,210,2013-03-20 17:56:00
11:15 AM,50.0,42.8,76,29.58,10.0,SSW,25.3,33.4,N/A,,Mostly Cloudy,210,2013-03-20 18:15:00
11:23 AM,50.0,42.8,76,29.58,10.0,SSW,20.7,35.7,N/A,,Mostly Cloudy,210,2013-03-20 18:23:00
11:58 AM,50.0,41.0,71,29.60,10.0,SSW,24.2,32.2,N/A,,Mostly Cloudy,210,2013-03-20 18:58:00
12:26 PM,51.8,41.0,67,29.62,10.0,SW,24.2,35.7,N/A,Rain,Light Rain,220,2013-03-20 19:26:00
12:58 PM,46.4,42.8,87,29.66,10.0,SSW,19.6,33.4,0.02,Rain,Light Rain,210,2013-03-20 19:58:00
1:00 PM,46.4,42.8,87,29.67,10.0,SSW,15.0,28.8,N/A,,Overcast,200,2013-03-20 20:00:00
1:04 PM,46.4,42.8,87,29.67,10.0,SSW,24.2,-,N/A,Rain,Light Rain,210,2013-03-20 20:04:00
1:27 PM,46.4,42.8,87,29.68,8.0,SW,16.1,24.2,N/A,Rain,Light Rain,220,2013-03-20 20:27:00
1:58 PM,46.2,44.1,92,29.70,10.0,SW,17.3,-,0.02,Rain,Light Rain,220,2013-03-20 20:58:00
2:28 PM,44.6,42.8,93,29.72,4.0,SW,17.3,27.6,N/A,Rain,Light Rain,220,2013-03-20 21:28:00
2:29 PM,44.6,42.8,93,29.72,4.0,SW,11.5,27.6,N/A,Rain,Rain,220,2013-03-20 21:29:00
2:45 PM,46.4,42.8,87,29.73,10.0,SW,13.8,20.7,N/A,Rain,Light Rain,220,2013-03-20 21:45:00
2:58 PM,46.2,43.5,90,29.73,10.0,SW,12.7,25.3,0.05,Rain,Light Rain,220,2013-03-20 21:58:00
3:28 PM,44.6,39.2,81,29.74,10.0,WSW,23.0,31.1,N/A,Rain,Light Rain,240,2013-03-20 22:28:00
3:31 PM,44.6,39.2,81,29.75,10.0,WSW,20.7,29.9,N/A,,Mostly Cloudy,240,2013-03-20 22:31:00
3:56 PM,46.4,41.0,81,29.75,10.0,WSW,18.4,26.5,N/A,,Mostly Cloudy,240,2013-03-20 22:56:00
4:16 PM,44.6,41.0,87,29.77,9.0,WSW,18.4,39.1,N/A,Rain,Light Rain,240,2013-03-20 23:16:00
4:29 PM,44.6,39.2,81,29.78,10.0,SW,20.7,28.8,N/A,,Mostly Cloudy,230,2013-03-20 23:29:00
4:32 PM,44.6,39.2,81,29.78,10.0,WSW,21.9,28.8,N/A,Rain,Light Rain,240,2013-03-20 23:32:00
4:33 PM,44.6,39.2,81,29.78,10.0,WSW,27.6,38.0,N/A,Rain,Light Rain,240,2013-03-20 23:33:00
4:56 PM,44.6,41.0,87,29.78,10.0,SW,15.0,27.6,N/A,,Mostly Cloudy,230,2013-03-20 23:56:00
5:58 PM,44.4,39.2,82,29.84,10.0,SW,18.4,28.8,N/A,,Overcast,220,2013-03-21 00:58:00
6:05 PM,44.6,39.2,81,29.83,10.0,SW,8.1,26.5,N/A,Rain,Light Rain,230,2013-03-21 01:05:00
6:25 PM,44.6,37.4,76,29.85,10.0,SW,18.4,31.1,N/A,,Overcast,230,2013-03-21 01:25:00
6:58 PM,42.3,35.8,78,29.90,10.0,WSW,13.8,28.8,0.00,,Overcast,240,2013-03-21 01:58:00
7:13 PM,41.0,35.6,81,29.88,10.0,SW,23.0,32.2,N/A,,Overcast,230,2013-03-21 02:13:00
7:38 PM,41.0,33.8,76,29.91,10.0,SW,13.8,23.0,N/A,,Mostly Cloudy,220,2013-03-21 02:38:00
7:44 PM,41.0,33.8,76,29.92,10.0,SSW,8.1,20.7,N/A,,Mostly Cloudy,210,2013-03-21 02:44:00
7:54 PM,41.0,35.6,81,29.93,10.0,SSW,8.1,-,N/A,,Mostly Cloudy,200,2013-03-21 02:54:00
7:58 PM,40.5,35.1,81,29.95,10.0,SSW,9.2,-,N/A,,Mostly Cloudy,200,2013-03-21 02:58:00
8:28 PM,39.2,35.6,87,29.95,10.0,SSW,9.2,20.7,N/A,,Mostly Cloudy,200,2013-03-21 03:28:00
8:48 PM,39.2,35.6,87,29.97,10.0,South,9.2,19.6,N/A,,Scattered Clouds,190,2013-03-21 03:48:00
8:55 PM,39.2,35.6,87,29.98,10.0,South,9.2,18.4,N/A,,Scattered Clouds,190,2013-03-21 03:55:00
9:55 PM,38.7,35.2,87,30.04,7.0,SW,19.6,25.3,0.01,Rain,Light Rain,220,2013-03-21 04:55:00
10:16 PM,37.4,35.6,93,30.05,10.0,South,11.5,21.9,N/A,,Overcast,180,2013-03-21 05:16:00
10:55 PM,38.7,35.2,87,30.04,7.0,SW,19.6,25.3,0.01,Rain,Light Rain,220,2013-03-21 05:55:00
11:28 PM,37.4,35.6,93,30.06,10.0,SSW,9.2,19.6,N/A,Rain,Light Rain,200,2013-03-21 06:28:00
11:31 PM,37.4,35.6,93,30.06,10.0,South,8.1,19.6,N/A,,Mostly Cloudy,190,2013-03-21 06:31:00
11:58 PM,36.5,34.9,94,30.08,10.0,South,13.8,19.6,0.00,,Mostly Cloudy,190,2013-03-21 06:58:00